METAR Data
IDs: Format: Raw Decoded Include TAF

Data at: 1657 UTC 03 Jun 2020

KJEF 031653Z 24006KT 7SM CLR 30/21 A2990 RMK AO2 SLP109 T03000211
KJEF 031553Z 21011KT 7SM CLR 29/21 A2990 RMK AO2 SLP109 T02940211
KJEF 031453Z 21009KT 7SM CLR 28/21 A2992 RMK AO2 SLP117 T02780206 58002
KJEF 031353Z 23008KT 6SM HZ SCT070 26/20 A2994 RMK AO2 SLP123 T02610200
KJEF 031253Z 25005KT 6SM HZ FEW060 24/19 A2993 RMK AO2 SLP122 T02390189
KJEF 031153Z 12004KT 6SM HZ CLR 21/18 A2992 RMK AO2 SLP118 T02110183 10239 20200 58005
KJEF 031053Z 12005KT 7SM CLR 21/18 A2993 RMK AO2 SLP121 T02060178
KJEF 030953Z AUTO 00000KT 7SM CLR 22/18 A2994 RMK AO2 SLP123 T02220178
KJEF 030853Z AUTO VRB03KT 8SM CLR 22/18 A2994 RMK AO2 SLP124 T02220178 58012
KJEF 030753Z AUTO 17004KT 6SM HZ CLR 22/18 A2995 RMK AO2 SLP128 T02220178
KJEF 030653Z AUTO 00000KT 7SM CLR 23/18 A2997 RMK AO2 SLP135 T02280183
KJEF 030553Z AUTO 20003KT 7SM CLR 24/18 A2998 RMK AO2 SLP136 T02390178 10300 20239 403110200 50007
KJEF 030453Z AUTO 18003KT 7SM CLR 24/18 A2998 RMK AO2 SLP137 T02390183
KJEF 030353Z AUTO 00000KT 7SM CLR 26/18 A2997 RMK AO2 SLP133 T02560178
KJEF 030253Z AUTO 00000KT 7SM CLR 26/18 A2995 RMK AO2 SLP129 T02560178 51001
KJEF 030153Z 16003KT 10SM CLR 27/18 A2995 RMK AO2 SLP129 T02720178
KJEF 030053Z 19007KT 10SM CLR 29/17 A2995 RMK AO2 SLP129 T02890172
KJEF 022353Z 22012G21KT 9SM CLR 30/18 A2995 RMK AO2 SLP128 T03000178 10311 20289 56012
KJEF 022253Z 19012KT 10SM CLR 31/17 A2996 RMK AO2 SLP131 T03110167
KJEF 022153Z 19012G16KT 10SM CLR 31/17 A2997 RMK AO2 SLP135 T03110172
KJEF 022053Z 22009KT 10SM CLR 31/17 A2999 RMK AO2 SLP140 T03060172 56017
KJEF 021953Z 24010KT 10SM CLR 30/16 A3000 RMK AO2 SLP144 T03000161
KJEF 021853Z 19009KT 10SM CLR 29/18 A3002 RMK AO2 SLP150 T02890178
KJEF 021753Z 25008KT 10SM CLR 29/17 A3004 RMK AO2 SLP156 T02890172 10289 20206 58013
KJEF 021653Z 22009KT 10SM CLR 28/17 A3005 RMK AO2 SLP162 T02830172
KJEF 021553Z 23011KT 10SM CLR 27/17 A3006 RMK AO2 SLP165 T02720167
KJEF 021453Z 23008KT 9SM CLR 26/17 A3007 RMK AO2 SLP170 T02560172 50001
KJEF 021353Z VRB06KT 9SM CLR 24/17 A3008 RMK AO2 SLP172 T02390167
KJEF 021253Z 23005KT 10SM CLR 22/16 A3008 RMK AO2 SLP171 T02170161
KJEF 021153Z 18004KT 10SM CLR 21/16 A3007 RMK AO2 SLP169 T02060156 10228 20200 53008
KJEF 021053Z 18004KT 10SM CLR 20/16 A3006 RMK AO2 SLP165 T02000156
KJEF 020953Z AUTO 00000KT 10SM CLR 20/16 A3005 RMK AO2 SLP162 T02000156
KJEF 020853Z AUTO 14003KT 10SM CLR 21/16 A3005 RMK AO2 SLP160 T02110156 56007
KJEF 020753Z AUTO 15003KT 10SM CLR 22/16 A3005 RMK AO2 SLP162 T02170156
KJEF 020653Z AUTO 00000KT 10SM CLR 22/16 A3006 RMK AO2 SLP163 T02220156
KJEF 020553Z AUTO 00000KT 10SM CLR 23/16 A3007 RMK AO2 SLP167 T02280156 10289 20228 403000178 58002